Aérodrome :
LOGIN :

S'inscrire | Disclaimer

   EN    FR    IT 

 










Légende :    VFR   VFR Marginal   IFR   IFR Intensif   IFR Très Intensif
Visi : 
Plafond : 
>= 8 km
>= 3000ft
5 à 8 km
1000 à 3000 ft
1500m à 5 km
500 à 1000 ft
800 à 1500m
200 à 500 ft
< 800m
< 200 ft
Symboles :   Orages  Brouillard  Fortes neiges  Fortes précipitations  Vent > 20 kt
SIGMETs :   Divers  Orages  Givrage  Turbulence  Onde Orograph.  Cendres Volcan.







- Altitude de l'aérodrome : 219 ft
- Code IATA : DNR
- Voir les cartes d'approche


LFRD - Dinard

DERNIER METAR :
  • 220230Z AUTO 13005KT 100V160 0450 0400 R35L/0450N FG VV/// 04/03 Q1032 TEMPO 0300 FG

METARs EXPIRÉS :
  • 220200Z AUTO 17005KT 0350 0300 R35L/0375N FG VV/// 04/03 Q1032 NOSIG
  • 220130Z AUTO 14004KT 110V180 0400 0350 R35L/0400N FG VV/// 04/04 Q1032 TEMPO 0300 FG
  • 220100Z AUTO 15003KT 0400 0350 R35L/0400N FG VV/// 05/04 Q1032 TEMPO 0300 FG
  • 220030Z AUTO 17005KT 0350 0300 R35L/0350N FG VV/// 05/04 Q1032 NOSIG
  • 220000Z AUTO 16003KT 0300 R35L/0350N FG VV/// 05/04 Q1031 TEMPO 0400 FG

TAF AMD TAF LFRD
Valide du 22 à 00h jusqu'au 23 à 00h UTC


220011Z 2200/2224 15006KT 0800 FG VV///
TEMPO 2200/2209 0300 FG VV///
BECMG 2209/2211 CAVOK
BECMG 2222/2224 4000 BR
ATIS : +33 2 99 16 81 50
Pas de NOTAMs connus pour ce terrain.



MET'MAP, la Météo Aéronautique d'un coup d'oeil ! - Copyright ORBIFLY Décembre 2007 - Disclaimer

ORBIFLY MET'MAP TEAM :

Programmation & Développement : Alexandra Zaïnal
Conception & Développement : Baudouin d'Aumeries
Co-Programmation & Développement : Marc-Olivier Méhu
Soutien technique & logistique : Manuel Goepfert

Contact : metmap@orbifly.com




SOURCES & CREDITS :

   NOAA